createdAt,value
2022-12-20T00:01:47.110Z,33.70
2022-12-20T00:06:41.637Z,38.03
2022-12-20T00:11:39.498Z,36.23
2022-12-20T00:16:32.755Z,38.70
2022-12-20T00:21:27.122Z,36.27
2022-12-20T00:26:22.701Z,36.53
2022-12-20T00:31:20.078Z,36.33
2022-12-20T00:36:13.532Z,35.37
2022-12-20T00:41:10.356Z,35.07
2022-12-20T00:46:04.192Z,34.70
2022-12-20T00:51:01.936Z,41.60
2022-12-20T00:55:55.837Z,34.97
2022-12-20T01:00:55.834Z,36.83
2022-12-20T01:05:54.296Z,37.63
2022-12-20T01:10:59.156Z,39.00
2022-12-20T01:15:52.377Z,37.47
2022-12-20T01:20:46.045Z,36.57
2022-12-20T01:25:39.230Z,33.83
2022-12-20T01:30:34.132Z,41.43
2022-12-20T01:35:27.591Z,36.00
2022-12-20T01:40:20.900Z,36.70
2022-12-20T01:45:22.001Z,38.57
2022-12-20T01:50:19.927Z,41.13
2022-12-20T01:55:18.727Z,49.27
2022-12-20T02:00:13.031Z,44.27
2022-12-20T02:05:09.774Z,37.27
2022-12-20T02:10:07.088Z,42.20
2022-12-20T02:15:33.457Z,45.07
2022-12-20T02:20:55.568Z,41.63
2022-12-20T02:26:07.212Z,35.43
2022-12-20T02:31:07.934Z,37.37
2022-12-20T02:36:01.553Z,54.83
2022-12-20T02:40:59.189Z,37.77
2022-12-20T02:45:53.744Z,34.40
2022-12-20T02:50:53.572Z,39.00
2022-12-20T02:55:52.166Z,41.20
2022-12-20T03:00:48.569Z,36.10
2022-12-20T03:05:48.046Z,41.43
2022-12-20T03:10:45.861Z,38.93
2022-12-20T03:15:39.360Z,39.10
2022-12-20T03:20:33.468Z,41.33
2022-12-20T03:25:26.669Z,41.10
2022-12-20T03:30:21.803Z,45.00
2022-12-20T03:35:15.262Z,45.83
2022-12-20T03:40:09.884Z,46.90
2022-12-20T03:45:03.417Z,41.63
2022-12-20T03:49:59.443Z,43.63
2022-12-20T03:54:54.139Z,48.43
2022-12-20T03:59:54.368Z,42.73
2022-12-20T04:04:47.849Z,42.77
2022-12-20T04:09:43.034Z,46.87
2022-12-20T04:14:39.589Z,44.70
2022-12-20T04:19:33.407Z,47.10
2022-12-20T04:24:28.480Z,47.53
2022-12-20T04:29:35.527Z,54.23
2022-12-20T04:34:31.639Z,67.87
2022-12-20T04:39:25.592Z,59.60
2022-12-20T04:44:43.091Z,50.77
2022-12-20T04:49:37.975Z,44.97
2022-12-20T04:54:31.791Z,44.57
2022-12-20T04:59:37.638Z,47.67
2022-12-20T05:04:37.226Z,51.67
2022-12-20T05:14:24.929Z,50.50
2022-12-20T05:19:18.846Z,46.80
2022-12-20T05:24:34.240Z,49.43
2022-12-20T05:29:41.835Z,49.87
2022-12-20T05:34:36.064Z,219.13
2022-12-20T05:39:31.098Z,48.70
2022-12-20T05:44:28.174Z,51.90
2022-12-20T05:49:25.830Z,47.30
2022-12-20T05:54:20.852Z,45.60
2022-12-20T05:59:22.779Z,44.33
2022-12-20T06:04:16.077Z,50.47
2022-12-20T06:09:10.869Z,49.90
2022-12-20T06:14:26.070Z,53.03
2022-12-20T06:19:22.486Z,48.93
2022-12-20T06:24:19.056Z,50.37
2022-12-20T06:29:14.352Z,54.00
2022-12-20T06:34:17.316Z,51.45
2022-12-20T06:39:11.634Z,52.57
2022-12-20T06:44:13.603Z,57.77
2022-12-20T06:49:07.055Z,55.90
2022-12-20T06:54:01.807Z,56.60
2022-12-20T06:58:58.033Z,62.97
2022-12-20T07:03:51.384Z,60.43
2022-12-20T07:08:44.800Z,76.23
2022-12-20T07:13:39.409Z,59.17
2022-12-20T07:18:32.850Z,45.10
2022-12-20T07:23:26.140Z,44.13
2022-12-20T07:28:19.466Z,47.13
2022-12-20T07:33:15.297Z,47.77
2022-12-20T07:38:08.532Z,52.67
2022-12-20T07:43:01.816Z,49.20
2022-12-20T07:47:57.298Z,56.97
2022-12-20T07:52:52.558Z,52.07
2022-12-20T07:57:50.374Z,52.67
2022-12-20T08:02:49.314Z,73.40
2022-12-20T08:07:44.517Z,52.03
2022-12-20T08:12:40.820Z,55.87
2022-12-20T08:17:34.300Z,51.77
2022-12-20T08:22:28.015Z,56.27
2022-12-20T08:27:21.383Z,59.23
2022-12-20T08:32:16.449Z,52.80
2022-12-20T08:37:14.703Z,59.27
2022-12-20T08:42:08.676Z,54.33
2022-12-20T08:47:01.903Z,54.43
2022-12-20T08:51:56.611Z,66.27
2022-12-20T08:56:50.145Z,60.47
2022-12-20T09:01:43.473Z,60.80
2022-12-20T09:06:37.118Z,56.23
2022-12-20T09:11:32.423Z,62.13
2022-12-20T09:16:28.972Z,59.43
2022-12-20T09:21:22.870Z,72.93
2022-12-20T09:26:17.795Z,60.50
2022-12-20T09:31:16.011Z,55.03
2022-12-20T09:36:12.673Z,59.73
2022-12-20T09:41:08.211Z,53.00
2022-12-20T09:46:03.154Z,54.83
2022-12-20T09:51:14.321Z,54.47
2022-12-20T09:56:15.686Z,64.63
2022-12-20T10:01:24.438Z,58.70
2022-12-20T10:06:32.445Z,51.17
2022-12-20T10:11:51.226Z,44.87
2022-12-20T10:16:47.920Z,50.37
2022-12-20T10:21:52.884Z,86.53
2022-12-20T10:26:47.769Z,48.20
2022-12-20T10:31:44.128Z,46.27
2022-12-20T10:36:38.418Z,49.00
2022-12-20T10:41:42.861Z,61.27
2022-12-20T10:46:38.966Z,49.50
2022-12-20T10:51:32.486Z,53.17
2022-12-20T10:56:29.255Z,48.13
2022-12-20T11:01:30.837Z,66.23
2022-12-20T11:06:26.948Z,45.40
2022-12-20T11:11:22.138Z,48.03
2022-12-20T11:16:38.137Z,55.53
2022-12-20T11:21:42.324Z,49.27
2022-12-20T11:26:52.167Z,49.33
2022-12-20T11:31:57.395Z,42.60
2022-12-20T11:37:11.500Z,68.43
2022-12-20T11:42:11.479Z,47.83
2022-12-20T11:47:30.948Z,50.63
2022-12-20T11:52:36.318Z,50.00
2022-12-20T11:58:01.727Z,52.67
2022-12-20T12:02:58.997Z,57.57
2022-12-20T12:08:00.848Z,51.93
2022-12-20T12:13:00.941Z,56.30
2022-12-20T12:18:03.781Z,55.88
2022-12-20T12:23:03.375Z,55.27
2022-12-20T12:28:04.396Z,58.63
2022-12-20T12:33:07.789Z,57.00
2022-12-20T12:38:34.633Z,63.77
2022-12-20T12:43:46.960Z,67.53
2022-12-20T12:48:52.534Z,69.27
2022-12-20T12:53:50.789Z,64.13
2022-12-20T12:59:06.526Z,74.10
2022-12-20T13:04:25.581Z,89.73
2022-12-20T13:09:36.608Z,68.47
2022-12-20T13:14:50.062Z,83.80
2022-12-20T13:19:52.655Z,76.97
2022-12-20T13:24:56.997Z,72.67
2022-12-20T13:30:27.836Z,69.77
2022-12-20T13:35:45.023Z,87.37
2022-12-20T13:40:42.400Z,76.23
2022-12-20T13:45:36.194Z,78.07
2022-12-20T13:50:35.722Z,76.40
2022-12-20T13:55:35.615Z,72.43
2022-12-20T14:00:29.196Z,68.30
2022-12-20T14:05:26.875Z,70.30
2022-12-20T14:10:26.492Z,67.50
2022-12-20T14:15:29.077Z,76.70
2022-12-20T14:20:31.448Z,68.23
2022-12-20T14:25:33.889Z,75.53
2022-12-20T14:30:30.277Z,83.63
2022-12-20T14:35:25.273Z,186.60
2022-12-20T14:40:22.707Z,100.50
2022-12-20T14:45:28.821Z,101.63
2022-12-20T14:50:30.438Z,107.57
2022-12-20T15:00:28.867Z,276.60
2022-12-20T15:05:54.102Z,247.70
2022-12-20T15:10:54.503Z,130.10
2022-12-20T15:15:49.324Z,95.97
2022-12-20T15:20:44.334Z,285.10
2022-12-20T15:25:43.177Z,198.30
2022-12-20T15:30:38.625Z,61.13
2022-12-20T15:35:34.288Z,76.77
2022-12-20T15:40:27.985Z,77.13
2022-12-20T15:45:31.911Z,67.27
2022-12-20T15:50:28.012Z,64.60
2022-12-20T15:55:25.167Z,62.20
2022-12-20T16:00:19.069Z,68.97
2022-12-20T16:05:14.800Z,55.13
2022-12-20T16:10:12.096Z,68.03
2022-12-20T16:15:11.182Z,59.87
2022-12-20T16:20:05.676Z,70.03
2022-12-20T16:24:59.270Z,63.40
2022-12-20T16:30:07.278Z,69.67
2022-12-20T16:35:02.776Z,61.33
2022-12-20T16:39:57.224Z,66.97
2022-12-20T16:44:53.369Z,59.13
2022-12-20T16:49:52.238Z,61.73
2022-12-20T16:54:48.002Z,63.17
2022-12-20T16:59:44.951Z,64.00
2022-12-20T17:04:38.185Z,71.50
2022-12-20T17:14:54.331Z,81.85
2022-12-20T17:19:50.807Z,88.07
2022-12-20T17:24:44.680Z,99.60
2022-12-20T17:29:38.019Z,85.00
2022-12-20T17:34:41.818Z,68.37
2022-12-20T17:39:38.908Z,70.23
2022-12-20T17:44:32.743Z,56.10
2022-12-20T17:49:26.990Z,69.47
2022-12-20T17:54:23.993Z,68.37
2022-12-20T17:59:17.951Z,66.60
2022-12-20T18:04:13.773Z,68.30
2022-12-20T18:09:15.566Z,66.10
2022-12-20T18:14:19.555Z,71.13
2022-12-20T18:19:20.084Z,66.07
2022-12-20T18:24:20.037Z,64.07
2022-12-20T18:29:13.512Z,66.20
2022-12-20T18:34:08.614Z,75.67
2022-12-20T18:39:03.472Z,68.37
2022-12-20T18:43:59.740Z,82.47
2022-12-20T18:48:54.555Z,77.73
2022-12-20T18:53:52.884Z,72.30
2022-12-20T18:58:49.829Z,69.20
2022-12-20T19:03:46.094Z,61.50
2022-12-20T19:08:40.078Z,55.50
2022-12-20T19:13:39.077Z,55.70
2022-12-20T19:18:32.548Z,57.63
2022-12-20T19:23:26.256Z,56.10
2022-12-20T19:28:20.324Z,57.07
2022-12-20T19:33:15.660Z,64.27
2022-12-20T19:38:09.985Z,58.50
2022-12-20T19:43:03.439Z,64.00
2022-12-20T19:47:59.431Z,65.17
2022-12-20T19:52:57.306Z,66.50
2022-12-20T19:57:50.858Z,61.90
2022-12-20T20:02:44.441Z,66.77
2022-12-20T20:07:37.845Z,69.73
2022-12-20T20:12:32.625Z,71.40
2022-12-20T20:17:26.151Z,65.00
2022-12-20T20:22:23.050Z,75.67
2022-12-20T20:27:19.398Z,68.43
2022-12-20T20:32:14.095Z,71.50
2022-12-20T20:37:07.528Z,69.27
2022-12-20T20:42:01.872Z,70.10
2022-12-20T20:46:55.177Z,68.20
2022-12-20T20:51:51.027Z,70.97
2022-12-20T20:56:44.366Z,71.70
2022-12-20T21:01:37.990Z,76.60
2022-12-20T21:06:46.987Z,72.67
2022-12-20T21:11:41.940Z,77.20
2022-12-20T21:16:36.935Z,72.67
2022-12-20T21:21:30.444Z,78.03
2022-12-20T21:26:25.614Z,71.83
2022-12-20T21:31:20.893Z,74.13
2022-12-20T21:36:16.425Z,69.97
2022-12-20T21:41:12.468Z,73.03
2022-12-20T21:46:06.091Z,74.57
2022-12-20T21:51:02.555Z,69.17
2022-12-20T21:55:58.017Z,68.77
2022-12-20T22:00:54.720Z,70.93
2022-12-20T22:05:48.716Z,64.47
2022-12-20T22:10:44.171Z,71.03
2022-12-20T22:15:38.992Z,65.93
2022-12-20T22:20:33.019Z,65.33
2022-12-20T22:25:26.709Z,65.20
2022-12-20T22:30:21.448Z,64.40
2022-12-20T22:35:20.634Z,58.60
2022-12-20T22:40:15.825Z,61.50
2022-12-20T22:45:10.436Z,63.47
2022-12-20T22:50:05.346Z,57.47
2022-12-20T22:54:58.673Z,63.20
2022-12-20T22:59:51.886Z,60.07
2022-12-20T23:04:45.278Z,53.97
2022-12-20T23:09:39.954Z,49.83
2022-12-20T23:14:50.959Z,44.17
2022-12-20T23:24:56.151Z,52.30
2022-12-20T23:29:49.304Z,52.47
2022-12-20T23:34:42.552Z,47.57
2022-12-20T23:39:35.933Z,47.17
2022-12-20T23:44:30.505Z,49.33
2022-12-20T23:49:23.626Z,50.17
2022-12-20T23:54:19.668Z,52.90
2022-12-20T23:59:12.928Z,62.63
